createdAt,value
2019-03-18T00:04:02.998Z,58.17
2019-03-18T00:08:07.230Z,58.46
2019-03-18T00:12:11.412Z,58.96
2019-03-18T00:16:15.633Z,59.58
2019-03-18T00:20:19.867Z,60.30
2019-03-18T00:24:24.085Z,61.49
2019-03-18T00:28:28.273Z,61.28
2019-03-18T00:32:32.493Z,61.60
2019-03-18T00:36:36.745Z,61.64
2019-03-18T00:40:40.977Z,62.10
2019-03-18T00:44:45.198Z,62.44
2019-03-18T00:48:49.405Z,62.63
2019-03-18T00:52:53.622Z,62.61
2019-03-18T00:56:57.801Z,63.17
2019-03-18T01:01:02.904Z,63.01
2019-03-18T01:05:07.986Z,63.00
2019-03-18T01:09:12.210Z,62.83
2019-03-18T01:13:16.427Z,62.66
2019-03-18T01:17:20.650Z,62.43
2019-03-18T01:21:24.839Z,62.50
2019-03-18T01:25:29.073Z,62.12
2019-03-18T01:29:33.242Z,62.25
2019-03-18T01:33:37.469Z,62.07
2019-03-18T01:37:41.694Z,61.96
2019-03-18T01:41:45.902Z,61.63
2019-03-18T01:45:50.134Z,61.35
2019-03-18T01:49:54.310Z,61.24
2019-03-18T01:53:58.753Z,61.09
2019-03-18T01:58:02.970Z,60.77
2019-03-18T02:02:07.196Z,60.81
2019-03-18T02:06:11.431Z,61.04
2019-03-18T02:10:15.903Z,61.05
2019-03-18T02:14:20.111Z,61.11
2019-03-18T02:18:24.375Z,61.06
2019-03-18T02:22:28.607Z,61.16
2019-03-18T02:26:32.972Z,61.33
2019-03-18T02:30:37.233Z,61.14
2019-03-18T02:34:41.920Z,61.29
2019-03-18T02:38:46.141Z,61.42
2019-03-18T02:42:50.361Z,61.47
2019-03-18T02:46:54.537Z,61.46
2019-03-18T02:50:58.762Z,61.47
2019-03-18T02:55:02.967Z,61.44
2019-03-18T02:59:07.322Z,61.54
2019-03-18T03:03:11.547Z,61.49
2019-03-18T03:07:15.719Z,61.61
2019-03-18T03:11:20.201Z,61.29
2019-03-18T03:15:24.375Z,61.29
2019-03-18T03:19:28.637Z,61.18
2019-03-18T03:23:32.868Z,61.26
2019-03-18T03:27:37.103Z,61.54
2019-03-18T03:31:41.329Z,61.45
2019-03-18T03:35:45.546Z,61.49
2019-03-18T03:39:49.725Z,61.42
2019-03-18T03:43:53.941Z,61.51
2019-03-18T03:47:58.138Z,61.56
2019-03-18T03:52:02.308Z,61.56
2019-03-18T03:56:06.540Z,61.58
2019-03-18T04:00:11.009Z,61.73
2019-03-18T04:04:15.231Z,61.63
2019-03-18T04:08:19.517Z,61.81
2019-03-18T04:12:23.764Z,61.90
2019-03-18T04:16:27.944Z,61.88
2019-03-18T04:20:32.201Z,61.85
2019-03-18T04:24:36.448Z,61.93
2019-03-18T04:28:40.653Z,61.87
2019-03-18T04:32:44.855Z,61.82
2019-03-18T04:36:49.074Z,61.83
2019-03-18T04:40:53.382Z,61.89
2019-03-18T04:44:57.589Z,61.98
2019-03-18T04:49:01.851Z,62.03
2019-03-18T04:53:06.046Z,62.07
2019-03-18T04:57:10.283Z,62.11
2019-03-18T05:01:14.466Z,61.99
2019-03-18T05:05:18.716Z,61.96
2019-03-18T05:09:22.931Z,61.89
2019-03-18T05:13:27.168Z,61.88
2019-03-18T05:17:31.374Z,61.94
2019-03-18T05:21:35.621Z,61.86
2019-03-18T05:25:39.871Z,61.59
2019-03-18T05:29:44.122Z,61.70
2019-03-18T05:33:48.305Z,61.45
2019-03-18T05:37:52.691Z,61.66
2019-03-18T05:41:56.866Z,61.56
2019-03-18T05:46:01.115Z,61.61
2019-03-18T05:50:05.678Z,61.62
2019-03-18T05:54:09.895Z,61.56
2019-03-18T05:58:14.066Z,61.44
2019-03-18T06:02:18.659Z,61.54
2019-03-18T06:06:22.838Z,61.45
2019-03-18T06:10:27.055Z,61.42
2019-03-18T06:14:31.470Z,61.41
2019-03-18T06:18:35.693Z,61.38
2019-03-18T06:22:39.919Z,61.08
2019-03-18T06:26:44.209Z,61.25
2019-03-18T06:30:48.575Z,61.08
2019-03-18T06:34:52.797Z,60.98
2019-03-18T06:38:57.171Z,61.00
2019-03-18T06:43:01.611Z,61.07
2019-03-18T06:47:05.797Z,60.96
2019-03-18T06:51:10.203Z,60.77
2019-03-18T06:55:14.478Z,60.71
2019-03-18T06:59:18.786Z,60.31
2019-03-18T07:03:23.018Z,60.28
2019-03-18T07:07:27.438Z,60.36
2019-03-18T07:11:31.671Z,60.29
2019-03-18T07:15:42.004Z,59.77
2019-03-18T07:19:46.239Z,59.71
2019-03-18T07:23:50.911Z,59.56
2019-03-18T07:27:55.124Z,59.30
2019-03-18T07:31:59.305Z,59.16
2019-03-18T07:36:03.846Z,59.47
2019-03-18T07:40:11.126Z,59.55
2019-03-18T07:44:14.810Z,59.19
2019-03-18T07:48:30.337Z,59.33
2019-03-18T07:52:25.078Z,58.83
2019-03-18T07:56:29.307Z,58.55
2019-03-18T08:00:33.567Z,58.15
2019-03-18T08:04:38.243Z,58.39
2019-03-18T08:08:42.700Z,58.09
2019-03-18T08:12:46.882Z,57.63
2019-03-18T08:16:51.150Z,57.59
2019-03-18T08:20:55.393Z,57.64
2019-03-18T08:24:59.896Z,57.75
2019-03-18T08:29:04.121Z,57.51
2019-03-18T08:33:08.386Z,57.83
2019-03-18T08:37:12.587Z,57.30
2019-03-18T08:41:17.073Z,56.68
2019-03-18T08:45:21.342Z,56.79
2019-03-18T08:49:25.575Z,57.00
2019-03-18T08:53:30.203Z,56.36
2019-03-18T08:57:34.421Z,56.48
2019-03-18T09:01:38.659Z,56.53
2019-03-18T09:05:42.901Z,56.04
2019-03-18T09:09:47.243Z,55.66
2019-03-18T09:13:51.489Z,55.72
2019-03-18T09:17:56.100Z,55.41
2019-03-18T09:22:00.361Z,55.27
2019-03-18T09:26:04.878Z,55.25
2019-03-18T09:30:11.042Z,54.96
2019-03-18T09:34:15.257Z,54.81
2019-03-18T09:38:19.488Z,54.61
2019-03-18T09:42:23.746Z,55.05
2019-03-18T09:46:27.994Z,54.47
2019-03-18T09:50:32.215Z,54.30
2019-03-18T09:54:36.457Z,54.36
2019-03-18T09:58:41.116Z,54.06
2019-03-18T10:02:45.402Z,53.63
2019-03-18T10:06:49.621Z,53.91
2019-03-18T10:10:53.795Z,53.46
2019-03-18T10:14:58.117Z,53.03
2019-03-18T10:19:02.338Z,53.10
2019-03-18T10:23:06.675Z,52.75
2019-03-18T10:27:11.231Z,53.26
2019-03-18T10:31:15.520Z,53.38
2019-03-18T10:35:19.899Z,53.52
2019-03-18T10:39:24.078Z,52.93
2019-03-18T10:43:28.326Z,52.87
2019-03-18T10:47:32.941Z,52.43
2019-03-18T10:51:37.195Z,52.22
2019-03-18T10:55:41.443Z,52.61
2019-03-18T10:59:45.669Z,52.30
2019-03-18T11:03:49.918Z,52.53
2019-03-18T11:07:54.113Z,51.89
2019-03-18T11:11:58.341Z,52.64
2019-03-18T11:16:02.572Z,52.18
2019-03-18T11:20:07.442Z,52.51
2019-03-18T11:24:11.710Z,51.87
2019-03-18T11:28:15.898Z,52.02
2019-03-18T11:32:20.171Z,51.70
2019-03-18T11:36:24.412Z,52.13
2019-03-18T11:40:28.614Z,52.16
2019-03-18T11:44:33.121Z,51.73
2019-03-18T11:48:37.397Z,51.94
2019-03-18T11:52:42.151Z,52.04
2019-03-18T11:56:46.648Z,52.00
2019-03-18T12:00:50.891Z,51.09
2019-03-18T12:04:57.496Z,51.00
2019-03-18T12:09:01.222Z,51.10
2019-03-18T12:13:05.436Z,50.97
2019-03-18T12:17:09.713Z,51.10
2019-03-18T12:21:16.013Z,50.59
2019-03-18T12:25:19.957Z,50.07
2019-03-18T12:29:24.300Z,50.68
2019-03-18T12:33:28.559Z,50.54
2019-03-18T12:37:32.792Z,48.87
2019-03-18T12:41:37.128Z,49.02
2019-03-18T12:45:41.446Z,49.86
2019-03-18T12:49:45.656Z,50.09
2019-03-18T12:53:50.023Z,49.01
2019-03-18T12:57:56.048Z,49.36
2019-03-18T13:02:00.517Z,47.82
2019-03-18T13:06:04.856Z,48.34
2019-03-18T13:10:11.223Z,48.57
2019-03-18T13:14:15.473Z,48.02
2019-03-18T13:18:19.868Z,47.37
2019-03-18T13:22:24.320Z,47.85
2019-03-18T13:26:28.520Z,47.60
2019-03-18T13:30:32.797Z,48.09
2019-03-18T13:34:37.015Z,48.01
2019-03-18T13:38:41.261Z,47.59
2019-03-18T13:42:45.462Z,47.43
2019-03-18T13:46:49.694Z,46.94
2019-03-18T13:50:54.018Z,46.88
2019-03-18T13:54:58.240Z,47.40
2019-03-18T13:59:02.536Z,46.64
2019-03-18T14:03:06.907Z,47.25
2019-03-18T14:07:11.145Z,47.13
2019-03-18T14:11:15.415Z,47.18
2019-03-18T14:15:19.650Z,47.03
2019-03-18T14:19:23.926Z,46.31
2019-03-18T14:23:28.227Z,45.86
2019-03-18T14:27:32.829Z,42.12
2019-03-18T14:31:37.148Z,43.71
2019-03-18T14:35:41.398Z,43.75
2019-03-18T14:39:45.774Z,42.81
2019-03-18T14:43:50.074Z,42.82
2019-03-18T14:47:54.538Z,42.47
2019-03-18T14:51:59.403Z,41.97
2019-03-18T14:56:03.789Z,42.30
2019-03-18T15:00:14.846Z,41.89
2019-03-18T15:04:19.203Z,42.30
2019-03-18T15:08:23.612Z,45.70
2019-03-18T15:12:28.745Z,46.70
2019-03-18T15:16:32.969Z,47.38
2019-03-18T15:20:37.362Z,48.47
2019-03-18T15:24:41.544Z,48.82
2019-03-18T15:28:45.763Z,49.35
2019-03-18T15:32:50.087Z,49.35
2019-03-18T15:36:54.654Z,49.57
2019-03-18T15:40:58.980Z,49.92
2019-03-18T15:45:03.558Z,49.93
2019-03-18T15:49:07.857Z,49.97
2019-03-18T15:53:12.093Z,49.93
2019-03-18T15:57:16.372Z,50.22
2019-03-18T16:01:20.551Z,50.47
2019-03-18T16:05:25.690Z,50.70
2019-03-18T16:09:30.127Z,51.08
2019-03-18T16:13:34.305Z,51.48
2019-03-18T16:17:41.369Z,51.87
2019-03-18T16:21:45.152Z,51.74
2019-03-18T16:25:49.380Z,52.10
2019-03-18T16:29:53.630Z,52.34
2019-03-18T16:33:58.066Z,52.64
2019-03-18T16:38:02.249Z,53.29
2019-03-18T16:42:06.613Z,53.20
2019-03-18T16:46:10.972Z,53.37
2019-03-18T16:50:16.934Z,53.53
2019-03-18T16:54:22.800Z,53.63
2019-03-18T16:58:27.016Z,53.83
2019-03-18T17:02:31.585Z,54.08
2019-03-18T17:06:37.961Z,54.03
2019-03-18T17:10:42.223Z,54.22
2019-03-18T17:14:46.475Z,54.33
2019-03-18T17:18:50.833Z,54.58
2019-03-18T17:22:55.163Z,54.56
2019-03-18T17:26:59.443Z,54.67
2019-03-18T17:31:03.667Z,54.98
2019-03-18T17:35:07.971Z,54.85
2019-03-18T17:39:14.711Z,54.84
2019-03-18T17:43:18.498Z,54.91
2019-03-18T17:47:23.550Z,54.85
2019-03-18T17:51:27.780Z,54.94
2019-03-18T17:55:35.568Z,54.79
2019-03-18T17:59:39.784Z,54.95
2019-03-18T18:03:44.097Z,54.82
2019-03-18T18:07:48.314Z,55.01
2019-03-18T18:11:52.811Z,55.03
2019-03-18T18:15:57.074Z,54.98
2019-03-18T18:20:01.305Z,55.01
2019-03-18T18:24:05.490Z,54.71
2019-03-18T18:28:09.719Z,54.66
2019-03-18T18:32:14.054Z,54.60
2019-03-18T18:36:18.344Z,54.66
2019-03-18T18:40:22.611Z,54.63
2019-03-18T18:44:26.974Z,54.80
2019-03-18T18:48:31.400Z,54.87
2019-03-18T18:52:36.161Z,54.98
2019-03-18T18:56:40.456Z,55.12
2019-03-18T19:00:44.776Z,55.38
2019-03-18T19:04:49.696Z,55.42
2019-03-18T19:08:54.106Z,55.41
2019-03-18T19:12:58.416Z,55.44
2019-03-18T19:17:02.845Z,55.71
2019-03-18T19:21:07.236Z,55.97
2019-03-18T19:25:12.365Z,55.92
2019-03-18T19:29:16.592Z,56.12
2019-03-18T19:33:20.885Z,56.37
2019-03-18T19:37:25.448Z,56.37
2019-03-18T19:41:29.769Z,56.42
2019-03-18T19:45:33.992Z,56.49
2019-03-18T19:49:38.220Z,56.50
2019-03-18T19:53:49.110Z,56.54
2019-03-18T19:57:48.528Z,56.58
2019-03-18T20:01:52.730Z,56.64
2019-03-18T20:05:57.108Z,56.58
2019-03-18T20:10:01.331Z,56.62
2019-03-18T20:14:05.791Z,56.61
2019-03-18T20:18:10.203Z,56.59
2019-03-18T20:22:14.541Z,56.75
2019-03-18T20:26:18.764Z,56.70
2019-03-18T20:30:22.983Z,56.77
2019-03-18T20:34:27.263Z,56.76
2019-03-18T20:38:31.484Z,56.78
2019-03-18T20:42:35.705Z,56.82
2019-03-18T20:46:39.963Z,56.77
2019-03-18T20:50:44.177Z,56.88
2019-03-18T20:54:48.388Z,56.96
2019-03-18T20:58:52.606Z,56.97
2019-03-18T21:02:56.952Z,56.91
2019-03-18T21:07:01.130Z,56.99
2019-03-18T21:11:05.420Z,57.07
2019-03-18T21:15:09.779Z,57.02
2019-03-18T21:19:13.959Z,57.00
2019-03-18T21:23:18.308Z,56.97
2019-03-18T21:27:22.484Z,57.01
2019-03-18T21:31:26.711Z,57.04
2019-03-18T21:35:30.982Z,56.97
2019-03-18T21:39:35.160Z,56.92
2019-03-18T21:43:39.588Z,56.63
2019-03-18T21:47:43.813Z,56.91
2019-03-18T21:51:48.350Z,56.99
2019-03-18T21:55:52.570Z,56.96
2019-03-18T21:59:57.689Z,57.01
2019-03-18T22:04:02.013Z,56.99
2019-03-18T22:08:06.666Z,56.87
2019-03-18T22:12:10.888Z,56.71
2019-03-18T22:16:15.402Z,56.79
2019-03-18T22:20:19.916Z,56.96
2019-03-18T22:24:24.249Z,57.13
2019-03-18T22:28:28.415Z,57.14
2019-03-18T22:32:32.743Z,57.04
2019-03-18T22:36:36.962Z,56.99
2019-03-18T22:40:41.209Z,57.08
2019-03-18T22:44:45.395Z,57.05
2019-03-18T22:48:49.614Z,57.11
2019-03-18T22:52:53.806Z,57.11
2019-03-18T22:56:58.017Z,57.20
2019-03-18T23:01:17.552Z,57.17
2019-03-18T23:05:22.251Z,56.65
2019-03-18T23:09:26.463Z,56.72
2019-03-18T23:13:30.636Z,56.85
2019-03-18T23:17:34.862Z,56.70
2019-03-18T23:21:39.030Z,56.67
2019-03-18T23:25:43.609Z,56.59
2019-03-18T23:29:47.781Z,56.74
2019-03-18T23:33:52.061Z,56.93
2019-03-18T23:37:56.279Z,57.21
2019-03-18T23:42:00.481Z,57.32
2019-03-18T23:46:04.708Z,57.46
2019-03-18T23:50:10.335Z,57.50
2019-03-18T23:54:14.559Z,57.57
2019-03-18T23:58:18.776Z,57.65
